createdAt,value
2023-02-02T00:00:07.997Z,99.02
2023-02-02T00:01:07.952Z,98.40
2023-02-02T00:02:07.960Z,98.40
2023-02-02T00:03:07.955Z,98.09
2023-02-02T00:04:08.043Z,98.09
2023-02-02T00:05:08.014Z,97.88
2023-02-02T00:06:07.914Z,97.32
2023-02-02T00:07:07.886Z,97.01
2023-02-02T00:08:07.946Z,96.39
2023-02-02T00:09:07.865Z,96.49
2023-02-02T00:10:07.885Z,96.59
2023-02-02T00:11:08.207Z,96.39
2023-02-02T00:12:07.856Z,96.23
2023-02-02T00:13:07.853Z,96.12
2023-02-02T00:14:07.834Z,95.92
2023-02-02T00:15:07.869Z,95.92
2023-02-02T00:16:07.971Z,96.02
2023-02-02T00:17:08.696Z,96.44
2023-02-02T00:18:07.830Z,96.64
2023-02-02T00:19:07.771Z,96.64
2023-02-02T00:20:07.827Z,96.33
2023-02-02T00:21:07.781Z,96.44
2023-02-02T00:22:07.787Z,96.79
2023-02-02T00:23:07.743Z,97.20
2023-02-02T00:24:08.527Z,96.79
2023-02-02T00:25:07.813Z,96.64
2023-02-02T00:26:07.713Z,96.79
2023-02-02T00:27:07.693Z,96.58
2023-02-02T00:28:07.692Z,96.37
2023-02-02T00:29:07.670Z,96.33
2023-02-02T00:30:07.692Z,96.23
2023-02-02T00:31:07.741Z,96.44
2023-02-02T00:32:07.665Z,96.58
2023-02-02T00:33:07.623Z,96.58
2023-02-02T00:34:07.629Z,96.69
2023-02-02T00:35:08.151Z,96.69
2023-02-02T00:36:07.637Z,96.58
2023-02-02T00:37:07.597Z,96.79
2023-02-02T00:38:07.623Z,97.00
2023-02-02T00:39:07.597Z,97.52
2023-02-02T00:40:07.555Z,97.62
2023-02-02T00:41:07.543Z,97.62
2023-02-02T00:42:07.836Z,97.62
2023-02-02T00:43:07.511Z,97.62
2023-02-02T00:44:07.532Z,97.47
2023-02-02T00:45:07.488Z,97.26
2023-02-02T00:46:07.525Z,97.57
2023-02-02T00:47:07.496Z,97.67
2023-02-02T00:48:07.500Z,97.47
2023-02-02T00:49:07.502Z,97.47
2023-02-02T00:50:07.457Z,97.16
2023-02-02T00:51:07.450Z,97.16
2023-02-02T00:52:07.443Z,97.36
2023-02-02T00:53:07.404Z,97.36
2023-02-02T00:54:07.407Z,97.47
2023-02-02T00:55:07.400Z,97.47
2023-02-02T00:56:07.434Z,97.67
2023-02-02T00:57:07.475Z,98.03
2023-02-02T00:58:07.384Z,98.24
2023-02-02T00:59:07.366Z,98.40
2023-02-02T01:00:07.343Z,98.34
2023-02-02T01:01:07.379Z,98.65
2023-02-02T01:02:07.372Z,98.86
2023-02-02T01:03:07.354Z,98.96
2023-02-02T01:04:07.313Z,99.27
2023-02-02T01:05:07.301Z,99.27
2023-02-02T01:06:07.275Z,99.38
2023-02-02T01:07:07.288Z,99.58
2023-02-02T01:08:07.280Z,99.69
2023-02-02T01:09:07.487Z,99.99
2023-02-02T01:10:07.295Z,99.99
2023-02-02T01:11:07.230Z,99.99
2023-02-02T01:12:07.218Z,99.99
2023-02-02T01:13:07.230Z,99.99
2023-02-02T01:14:07.229Z,99.99
2023-02-02T01:15:07.197Z,99.99
2023-02-02T01:16:07.224Z,99.99
2023-02-02T01:17:07.160Z,99.99
2023-02-02T01:18:07.160Z,99.99
2023-02-02T01:19:07.153Z,99.99
2023-02-02T01:20:07.147Z,99.99
2023-02-02T01:21:07.125Z,99.99
2023-02-02T01:22:07.123Z,99.99
2023-02-02T01:23:07.101Z,99.99
2023-02-02T01:24:07.119Z,99.99
2023-02-02T01:25:07.098Z,99.99
2023-02-02T01:26:07.080Z,99.99
2023-02-02T01:27:07.085Z,99.99
2023-02-02T01:28:07.050Z,99.99
2023-02-02T01:29:07.103Z,99.99
2023-02-02T01:30:07.051Z,99.99
2023-02-02T01:31:07.083Z,99.99
2023-02-02T01:32:07.024Z,99.99
2023-02-02T01:33:06.999Z,99.99
2023-02-02T01:34:06.995Z,99.99
2023-02-02T01:35:07.020Z,99.99
2023-02-02T01:36:06.993Z,99.99
2023-02-02T01:37:06.953Z,99.99
2023-02-02T01:38:06.930Z,99.99
2023-02-02T01:39:06.995Z,99.99
2023-02-02T01:40:06.938Z,99.99
2023-02-02T01:41:06.948Z,99.99
2023-02-02T01:42:06.909Z,99.99
2023-02-02T01:43:06.900Z,99.99
2023-02-02T01:44:06.884Z,99.99
2023-02-02T01:45:06.875Z,99.99
2023-02-02T01:46:06.976Z,99.99
2023-02-02T01:47:06.869Z,99.99
2023-02-02T01:48:06.846Z,99.99
2023-02-02T01:49:06.832Z,99.99
2023-02-02T01:50:06.833Z,99.99
2023-02-02T01:51:07.252Z,99.99
2023-02-02T01:52:06.817Z,99.99
2023-02-02T01:53:06.835Z,99.99
2023-02-02T01:54:06.785Z,99.99
2023-02-02T01:55:07.379Z,99.99
2023-02-02T01:56:06.783Z,99.99
2023-02-02T01:57:06.758Z,99.99
2023-02-02T01:58:06.947Z,99.99
2023-02-02T01:59:06.728Z,99.99
2023-02-02T02:00:06.740Z,99.99
2023-02-02T02:01:06.736Z,99.99
2023-02-02T02:02:06.801Z,99.99
2023-02-02T02:03:06.686Z,99.99
2023-02-02T02:04:06.705Z,99.99
2023-02-02T02:05:06.687Z,99.99
2023-02-02T02:06:06.702Z,99.99
2023-02-02T02:07:06.769Z,99.99
2023-02-02T02:08:06.815Z,99.99
2023-02-02T02:09:06.647Z,99.99
2023-02-02T02:10:06.606Z,99.99
2023-02-02T02:11:06.603Z,99.99
2023-02-02T02:12:06.585Z,99.99
2023-02-02T02:13:06.590Z,99.99
2023-02-02T02:14:06.577Z,99.99
2023-02-02T02:15:06.550Z,99.99
2023-02-02T02:16:06.577Z,99.99
2023-02-02T02:17:06.586Z,99.99
2023-02-02T02:18:06.529Z,99.99
2023-02-02T02:19:06.524Z,99.99
2023-02-02T02:20:06.525Z,99.99
2023-02-02T02:21:07.920Z,99.99
2023-02-02T02:22:06.478Z,99.99
2023-02-02T02:23:06.484Z,99.99
2023-02-02T02:24:06.495Z,99.99
2023-02-02T02:25:06.463Z,99.99
2023-02-02T02:26:06.500Z,99.99
2023-02-02T02:27:06.426Z,99.99
2023-02-02T02:28:06.462Z,99.99
2023-02-02T02:29:06.421Z,99.99
2023-02-02T02:30:06.412Z,99.99
2023-02-02T02:31:06.466Z,99.99
2023-02-02T02:32:06.390Z,99.99
2023-02-02T02:33:06.393Z,99.99
2023-02-02T02:34:06.387Z,99.99
2023-02-02T02:35:06.347Z,99.99
2023-02-02T02:36:06.357Z,99.99
2023-02-02T02:37:06.320Z,99.99
2023-02-02T02:38:06.313Z,99.99
2023-02-02T02:39:06.326Z,99.99
2023-02-02T02:40:06.313Z,99.99
2023-02-02T02:41:06.276Z,99.99
2023-02-02T02:42:06.302Z,99.99
2023-02-02T02:43:06.284Z,99.99
2023-02-02T02:44:06.277Z,99.99
2023-02-02T02:45:06.247Z,99.99
2023-02-02T02:46:06.303Z,99.99
2023-02-02T02:47:06.221Z,99.99
2023-02-02T02:48:06.257Z,99.99
2023-02-02T02:49:06.202Z,99.99
2023-02-02T02:50:06.242Z,99.99
2023-02-02T02:51:06.176Z,99.99
2023-02-02T02:52:06.295Z,99.99
2023-02-02T02:53:06.164Z,99.99
2023-02-02T02:54:06.172Z,99.99
2023-02-02T02:55:06.195Z,99.99
2023-02-02T02:56:06.155Z,99.99
2023-02-02T02:57:06.135Z,99.99
2023-02-02T02:58:06.147Z,99.99
2023-02-02T02:59:06.078Z,99.99
2023-02-02T03:00:06.102Z,99.99
2023-02-02T03:01:06.086Z,99.99
2023-02-02T03:02:06.108Z,99.99
2023-02-02T03:03:06.073Z,99.99
2023-02-02T03:04:06.108Z,99.99
2023-02-02T03:05:06.024Z,99.99
2023-02-02T03:06:06.039Z,99.99
2023-02-02T03:07:05.990Z,99.99
2023-02-02T03:08:06.061Z,99.99
2023-02-02T03:09:06.004Z,99.99
2023-02-02T03:10:05.990Z,99.99
2023-02-02T03:11:05.967Z,99.99
2023-02-02T03:12:05.967Z,99.99
2023-02-02T03:13:05.976Z,99.99
2023-02-02T03:14:05.949Z,99.99
2023-02-02T03:15:05.913Z,99.99
2023-02-02T03:16:05.959Z,99.99
2023-02-02T03:17:05.918Z,99.99
2023-02-02T03:18:05.900Z,99.99
2023-02-02T03:19:05.916Z,99.99
2023-02-02T03:20:05.922Z,99.99
2023-02-02T03:21:05.890Z,99.99
2023-02-02T03:22:05.840Z,99.99
2023-02-02T03:23:05.846Z,99.99
2023-02-02T03:24:05.846Z,99.99
2023-02-02T03:25:05.817Z,99.99
2023-02-02T03:26:05.826Z,99.99
2023-02-02T03:27:05.821Z,99.99
2023-02-02T03:28:05.811Z,99.99
2023-02-02T03:29:05.791Z,99.99
2023-02-02T03:30:05.768Z,99.99
2023-02-02T03:31:05.902Z,99.99
2023-02-02T03:32:05.812Z,99.99
2023-02-02T03:33:05.795Z,99.99
2023-02-02T03:34:05.722Z,99.99
2023-02-02T03:35:05.741Z,99.99
2023-02-02T03:36:05.704Z,99.99
2023-02-02T03:37:05.689Z,99.99
2023-02-02T03:38:05.676Z,99.99
2023-02-02T03:39:05.668Z,99.99
2023-02-02T03:40:05.665Z,99.99
2023-02-02T03:41:05.660Z,99.99
2023-02-02T03:42:05.651Z,99.99
2023-02-02T03:43:05.621Z,99.99
2023-02-02T03:44:05.634Z,99.99
2023-02-02T03:45:05.610Z,99.99
2023-02-02T03:46:05.684Z,99.99
2023-02-02T03:47:05.573Z,99.99
2023-02-02T03:48:05.580Z,99.99
2023-02-02T03:49:05.594Z,99.99
2023-02-02T03:50:05.627Z,99.99
2023-02-02T03:51:05.576Z,99.99
2023-02-02T03:52:05.530Z,99.99
2023-02-02T03:53:05.544Z,99.99
2023-02-02T03:54:05.542Z,99.99
2023-02-02T03:55:05.538Z,99.99
2023-02-02T03:56:05.496Z,99.99
2023-02-02T03:57:05.507Z,99.99
2023-02-02T03:58:05.457Z,99.99
2023-02-02T03:59:05.558Z,99.99
2023-02-02T04:00:05.451Z,99.99
2023-02-02T04:01:05.459Z,99.99
2023-02-02T04:02:05.429Z,99.99
2023-02-02T04:03:05.519Z,99.99
2023-02-02T04:04:05.398Z,99.99
2023-02-02T04:05:05.408Z,99.99
2023-02-02T04:06:05.388Z,99.99
2023-02-02T04:07:05.386Z,99.99
2023-02-02T04:08:05.346Z,99.99
2023-02-02T04:09:05.458Z,99.99
2023-02-02T04:10:05.348Z,99.99
2023-02-02T04:11:05.321Z,99.99
2023-02-02T04:12:05.322Z,99.99
2023-02-02T04:13:05.316Z,99.99
2023-02-02T04:14:05.745Z,99.99
2023-02-02T04:15:05.337Z,99.99
2023-02-02T04:16:05.350Z,99.99
2023-02-02T04:17:05.267Z,99.99
2023-02-02T04:18:05.243Z,99.99
2023-02-02T04:19:05.461Z,99.99
2023-02-02T04:20:05.274Z,99.99
2023-02-02T04:21:05.239Z,99.99
2023-02-02T04:22:05.209Z,99.99
2023-02-02T04:23:05.199Z,99.99
2023-02-02T04:24:05.201Z,99.99
2023-02-02T04:25:05.213Z,99.99
2023-02-02T04:26:05.159Z,99.99
2023-02-02T04:27:05.173Z,99.99
2023-02-02T04:28:05.153Z,99.99
2023-02-02T04:29:05.158Z,99.99
2023-02-02T04:30:05.117Z,99.99
2023-02-02T04:31:05.148Z,99.99
2023-02-02T04:32:05.120Z,99.99
2023-02-02T04:33:05.106Z,99.99
2023-02-02T04:34:05.089Z,99.99
2023-02-02T04:35:05.072Z,99.99
2023-02-02T04:36:05.054Z,99.99
2023-02-02T04:37:05.048Z,99.99
2023-02-02T04:38:05.225Z,99.99
2023-02-02T04:39:05.039Z,99.99
2023-02-02T04:40:05.049Z,99.99
2023-02-02T04:41:05.020Z,99.99
2023-02-02T04:42:05.013Z,99.99
2023-02-02T04:43:04.991Z,99.99
2023-02-02T04:44:04.996Z,99.99
2023-02-02T04:45:04.991Z,99.99
2023-02-02T04:46:04.961Z,99.99
2023-02-02T04:47:04.945Z,99.99
2023-02-02T04:48:04.954Z,99.99
2023-02-02T04:49:04.953Z,99.99
2023-02-02T04:50:04.913Z,99.99
2023-02-02T04:51:04.900Z,99.99
2023-02-02T04:52:04.904Z,99.99
2023-02-02T04:53:04.938Z,99.99
2023-02-02T04:54:04.883Z,99.99
2023-02-02T04:55:04.886Z,99.99
2023-02-02T04:56:04.865Z,99.99
2023-02-02T04:57:04.877Z,99.99
2023-02-02T04:58:04.842Z,99.99
2023-02-02T04:59:04.851Z,99.99
2023-02-02T05:00:04.802Z,99.99
2023-02-02T05:01:04.856Z,99.99
2023-02-02T05:02:04.803Z,99.99
2023-02-02T05:03:04.800Z,99.99
2023-02-02T05:04:04.801Z,99.99
2023-02-02T05:05:04.757Z,99.99
2023-02-02T05:06:04.741Z,99.99
2023-02-02T05:07:04.734Z,99.99
2023-02-02T05:08:04.730Z,99.99
2023-02-02T05:09:04.737Z,99.99
2023-02-02T05:10:04.728Z,99.99
2023-02-02T05:11:04.683Z,99.99
2023-02-02T05:12:05.464Z,99.99
2023-02-02T05:13:04.672Z,99.99
2023-02-02T05:14:04.667Z,99.99
2023-02-02T05:15:04.666Z,99.99
2023-02-02T05:16:04.638Z,99.99
2023-02-02T05:17:04.639Z,99.99
2023-02-02T05:18:04.596Z,99.99
2023-02-02T05:19:04.604Z,99.99
2023-02-02T05:20:04.607Z,99.99
2023-02-02T05:21:04.596Z,99.99
2023-02-02T05:22:04.673Z,99.99
2023-02-02T05:23:04.555Z,99.99
2023-02-02T05:24:04.694Z,99.99
2023-02-02T05:25:04.554Z,99.99
2023-02-02T05:26:04.531Z,99.99
2023-02-02T05:27:04.518Z,99.99
2023-02-02T05:28:04.593Z,99.99
2023-02-02T05:29:04.511Z,99.99
2023-02-02T05:30:04.575Z,99.99
2023-02-02T05:31:04.536Z,99.99
2023-02-02T05:32:04.560Z,99.99
2023-02-02T05:33:04.471Z,99.99
2023-02-02T05:34:04.479Z,99.99
2023-02-02T05:35:04.454Z,99.99
2023-02-02T05:36:04.437Z,99.99
2023-02-02T05:37:04.423Z,99.99
2023-02-02T05:38:04.457Z,99.99
2023-02-02T05:39:04.399Z,99.99
2023-02-02T05:40:04.418Z,99.99
2023-02-02T05:41:04.405Z,99.99
2023-02-02T05:42:04.352Z,99.99
2023-02-02T05:43:04.376Z,99.99
2023-02-02T05:44:04.372Z,99.99
2023-02-02T05:45:04.484Z,99.99
2023-02-02T05:46:04.383Z,99.99
2023-02-02T05:47:04.348Z,99.99
2023-02-02T05:48:04.303Z,99.99
2023-02-02T05:49:04.383Z,99.99
2023-02-02T05:50:04.312Z,99.99
2023-02-02T05:51:04.490Z,99.99
2023-02-02T05:52:04.245Z,99.99
2023-02-02T05:53:04.259Z,99.99
2023-02-02T05:54:04.229Z,99.99
2023-02-02T05:55:04.236Z,99.99
2023-02-02T05:56:04.255Z,99.99
2023-02-02T05:57:04.207Z,99.99
2023-02-02T05:58:04.200Z,99.99
2023-02-02T05:59:04.225Z,99.99
2023-02-02T06:00:04.159Z,99.99
2023-02-02T06:01:04.251Z,99.99
2023-02-02T06:02:04.145Z,99.99
2023-02-02T06:03:04.297Z,99.99
2023-02-02T06:04:04.169Z,99.99
2023-02-02T06:05:04.111Z,99.99
2023-02-02T06:06:06.660Z,99.99
2023-02-02T06:07:04.269Z,99.99
2023-02-02T06:08:04.138Z,99.99
2023-02-02T06:09:04.075Z,99.99
2023-02-02T06:10:04.055Z,99.99
2023-02-02T06:11:04.070Z,99.99
2023-02-02T06:12:04.090Z,99.99
2023-02-02T06:13:04.028Z,99.99
2023-02-02T06:14:04.018Z,99.99
2023-02-02T06:15:04.010Z,99.99
2023-02-02T06:16:04.124Z,99.99
2023-02-02T06:17:04.077Z,99.99
2023-02-02T06:18:03.986Z,99.99
2023-02-02T06:19:03.945Z,99.99
2023-02-02T06:20:04.058Z,99.99
2023-02-02T06:21:04.051Z,99.99
2023-02-02T06:22:03.956Z,99.99
2023-02-02T06:23:04.033Z,99.99
2023-02-02T06:24:03.909Z,99.99
2023-02-02T06:25:03.903Z,99.99
2023-02-02T06:26:03.885Z,99.99
2023-02-02T06:27:03.885Z,99.99
2023-02-02T06:28:04.067Z,99.99
2023-02-02T06:29:03.848Z,99.99
2023-02-02T06:30:03.974Z,99.99
2023-02-02T06:31:03.948Z,99.99
2023-02-02T06:32:03.940Z,99.99
2023-02-02T06:33:03.826Z,99.99
2023-02-02T06:34:05.818Z,99.99
2023-02-02T06:35:03.971Z,99.99
2023-02-02T06:36:03.799Z,99.99
2023-02-02T06:37:03.787Z,99.99
2023-02-02T06:38:03.772Z,99.99
2023-02-02T06:39:03.748Z,99.99
2023-02-02T06:40:03.771Z,99.99
2023-02-02T06:41:03.799Z,99.99
2023-02-02T06:42:19.223Z,99.99
2023-02-02T06:43:03.741Z,99.99
2023-02-02T06:44:03.879Z,99.99
2023-02-02T06:45:03.742Z,99.99
2023-02-02T06:46:03.730Z,99.99
2023-02-02T06:47:03.729Z,99.99
2023-02-02T06:48:03.884Z,99.99
2023-02-02T06:49:03.663Z,99.99
2023-02-02T06:50:03.620Z,99.99
2023-02-02T06:51:03.624Z,99.99
2023-02-02T06:52:03.644Z,99.99
2023-02-02T06:53:03.604Z,99.99
2023-02-02T06:54:03.672Z,99.99
2023-02-02T06:55:03.543Z,99.99
2023-02-02T06:56:03.504Z,99.99
2023-02-02T06:57:03.550Z,99.99
2023-02-02T06:58:03.600Z,99.99
2023-02-02T06:59:03.514Z,99.99
2023-02-02T07:00:03.469Z,99.99
2023-02-02T07:01:03.482Z,99.99
2023-02-02T07:02:03.462Z,99.99
2023-02-02T07:03:03.545Z,99.99
2023-02-02T07:04:03.482Z,99.99
2023-02-02T07:05:03.443Z,99.99
2023-02-02T07:06:03.442Z,99.99
2023-02-02T07:07:03.415Z,99.99
2023-02-02T07:08:03.393Z,99.99
2023-02-02T07:09:03.673Z,99.99
2023-02-02T07:10:03.398Z,99.99
2023-02-02T07:11:13.825Z,99.99
2023-02-02T07:12:03.370Z,99.99
2023-02-02T07:13:03.325Z,99.99
2023-02-02T07:14:03.315Z,99.99
2023-02-02T07:15:03.492Z,99.99
2023-02-02T07:16:03.332Z,99.99
2023-02-02T07:17:03.311Z,99.99
2023-02-02T07:18:03.286Z,99.99
2023-02-02T07:19:03.270Z,99.99
2023-02-02T07:20:03.255Z,99.99
2023-02-02T07:21:03.250Z,99.99
2023-02-02T07:22:03.252Z,99.99
2023-02-02T07:23:03.246Z,99.99
2023-02-02T07:24:03.214Z,99.99
2023-02-02T07:25:03.211Z,99.99
2023-02-02T07:26:03.243Z,99.99
2023-02-02T07:27:03.214Z,99.99
2023-02-02T07:28:03.193Z,99.99
2023-02-02T07:29:03.157Z,99.99
2023-02-02T07:30:03.173Z,99.99
2023-02-02T07:31:03.293Z,99.99
2023-02-02T07:32:03.155Z,99.99
2023-02-02T07:33:03.162Z,99.99
2023-02-02T07:34:03.150Z,99.99
2023-02-02T07:35:03.096Z,99.99
2023-02-02T07:36:03.102Z,99.99
2023-02-02T07:37:03.099Z,99.99
2023-02-02T07:38:03.078Z,99.99
2023-02-02T07:39:03.053Z,99.99
2023-02-02T07:40:03.095Z,99.99
2023-02-02T07:41:03.157Z,99.99
2023-02-02T07:42:03.016Z,99.99
2023-02-02T07:43:03.028Z,99.99
2023-02-02T07:44:03.000Z,99.99
2023-02-02T07:45:36.510Z,99.99
2023-02-02T07:46:03.007Z,99.99
2023-02-02T07:47:02.991Z,99.99
2023-02-02T07:48:03.011Z,99.99
2023-02-02T07:49:02.959Z,99.99
2023-02-02T07:50:02.993Z,99.99
2023-02-02T07:51:02.951Z,99.99
2023-02-02T07:52:02.926Z,99.99
2023-02-02T07:53:02.933Z,99.99
2023-02-02T07:54:02.939Z,99.99
2023-02-02T07:55:14.407Z,99.99
2023-02-02T07:56:03.141Z,99.99
2023-02-02T07:57:02.892Z,99.99
2023-02-02T07:58:03.155Z,99.99
2023-02-02T07:59:02.913Z,99.99
2023-02-02T08:00:02.865Z,99.99
2023-02-02T08:01:02.915Z,99.99
2023-02-02T08:02:02.913Z,99.99
2023-02-02T08:03:02.869Z,99.99
2023-02-02T08:04:02.902Z,99.99
2023-02-02T08:05:02.801Z,99.99
2023-02-02T08:06:03.021Z,99.99
2023-02-02T08:07:02.831Z,99.99
2023-02-02T08:08:02.744Z,99.99
2023-02-02T08:09:02.763Z,99.99
2023-02-02T08:10:02.716Z,99.99
2023-02-02T08:11:02.712Z,99.99
2023-02-02T08:12:02.835Z,99.99
2023-02-02T08:13:02.672Z,99.99
2023-02-02T08:14:02.764Z,99.99
2023-02-02T08:15:02.692Z,99.99
2023-02-02T08:16:02.727Z,99.99
2023-02-02T08:17:02.791Z,99.99
2023-02-02T08:18:02.677Z,99.99
2023-02-02T08:19:02.626Z,99.99
2023-02-02T08:20:02.624Z,99.99
2023-02-02T08:21:02.637Z,99.99
2023-02-02T08:22:02.657Z,99.99
2023-02-02T08:23:02.590Z,99.99
2023-02-02T08:24:02.612Z,99.99
2023-02-02T08:25:02.567Z,99.99
2023-02-02T08:26:02.799Z,99.99
2023-02-02T08:27:02.552Z,99.99
2023-02-02T08:28:02.537Z,99.99
2023-02-02T08:29:02.509Z,99.99
2023-02-02T08:30:02.523Z,99.99
2023-02-02T08:31:02.493Z,99.99
2023-02-02T08:32:02.551Z,99.99
2023-02-02T08:33:02.501Z,99.99
2023-02-02T08:34:02.477Z,99.99
2023-02-02T08:35:02.456Z,99.99
2023-02-02T08:36:02.464Z,99.99
2023-02-02T08:37:02.441Z,99.99
2023-02-02T08:38:02.463Z,99.99
2023-02-02T08:39:03.279Z,99.99
2023-02-02T08:40:02.468Z,99.99
2023-02-02T08:41:02.396Z,99.99
2023-02-02T08:42:02.405Z,99.99
2023-02-02T08:43:02.396Z,99.99
2023-02-02T08:44:02.387Z,99.99
2023-02-02T08:46:02.654Z,99.99
2023-02-02T08:46:08.245Z,99.99
2023-02-02T08:47:02.423Z,99.99
2023-02-02T08:48:11.713Z,99.99
2023-02-02T08:49:02.340Z,99.99
2023-02-02T08:50:02.324Z,99.99
2023-02-02T08:51:02.284Z,99.99
2023-02-02T08:52:03.003Z,99.99
2023-02-02T08:53:02.290Z,99.99
2023-02-02T08:54:02.300Z,99.99
2023-02-02T08:55:02.263Z,99.99
2023-02-02T08:56:02.243Z,99.99
2023-02-02T08:57:02.215Z,99.99
2023-02-02T08:58:02.338Z,99.99
2023-02-02T08:59:02.199Z,99.99
2023-02-02T09:00:02.190Z,99.99
2023-02-02T09:01:02.357Z,99.99
2023-02-02T09:02:02.240Z,99.99
2023-02-02T09:03:02.295Z,99.99
2023-02-02T09:04:02.145Z,99.99
2023-02-02T09:05:02.168Z,99.99
2023-02-02T09:06:02.141Z,99.99
2023-02-02T09:07:02.209Z,99.99
2023-02-02T09:08:02.206Z,99.99
2023-02-02T09:09:02.198Z,99.99
2023-02-02T09:10:02.120Z,99.99
2023-02-02T09:11:02.146Z,99.99
2023-02-02T09:12:02.127Z,99.99
2023-02-02T09:13:02.071Z,99.99
2023-02-02T09:14:02.106Z,99.99
2023-02-02T09:15:02.073Z,99.99
2023-02-02T09:16:02.041Z,99.99
2023-02-02T09:17:02.068Z,99.99
2023-02-02T09:18:02.009Z,99.99
2023-02-02T09:19:02.084Z,99.99
2023-02-02T09:20:01.996Z,99.99
2023-02-02T09:21:01.958Z,99.99
2023-02-02T09:22:02.062Z,99.99
2023-02-02T09:23:01.934Z,99.99
2023-02-02T09:24:01.936Z,99.99
2023-02-02T09:25:01.974Z,99.99
2023-02-02T09:26:01.922Z,99.99
2023-02-02T09:27:02.024Z,99.99
2023-02-02T09:28:01.918Z,99.99
2023-02-02T09:29:01.871Z,99.99
2023-02-02T09:30:01.888Z,99.99
2023-02-02T09:31:01.970Z,99.99
2023-02-02T09:32:01.915Z,99.99
2023-02-02T09:33:01.843Z,99.99
2023-02-02T09:34:01.876Z,99.99
2023-02-02T09:35:01.822Z,99.99
2023-02-02T09:36:01.826Z,99.99
2023-02-02T09:37:01.835Z,99.99
2023-02-02T09:38:01.811Z,99.99
2023-02-02T09:39:01.776Z,99.99
2023-02-02T09:40:01.813Z,99.99
2023-02-02T09:41:01.744Z,99.99
2023-02-02T09:42:03.238Z,99.99
2023-02-02T09:43:01.729Z,99.99
2023-02-02T09:44:01.750Z,99.99
2023-02-02T09:45:01.758Z,99.99
2023-02-02T09:46:01.754Z,99.99
2023-02-02T09:47:01.697Z,99.99
2023-02-02T09:48:01.667Z,99.99
2023-02-02T09:49:01.738Z,99.99
2023-02-02T09:50:01.667Z,99.99
2023-02-02T09:51:01.673Z,99.99
2023-02-02T09:52:01.644Z,99.99
2023-02-02T09:53:01.608Z,99.99
2023-02-02T09:54:01.606Z,99.99
2023-02-02T09:55:01.664Z,99.99
2023-02-02T09:56:01.596Z,99.99
2023-02-02T09:57:01.621Z,99.99
2023-02-02T09:58:01.649Z,99.99
2023-02-02T09:59:13.783Z,99.99
2023-02-02T10:00:01.624Z,99.99
2023-02-02T10:01:01.582Z,99.99
2023-02-02T10:02:01.629Z,99.99
2023-02-02T10:03:01.511Z,99.99
2023-02-02T10:04:01.709Z,99.99
2023-02-02T10:05:01.548Z,99.99
2023-02-02T10:06:01.553Z,99.99
2023-02-02T10:07:01.479Z,99.99
2023-02-02T10:08:01.503Z,99.99
2023-02-02T10:09:01.466Z,99.99
2023-02-02T10:10:03.213Z,99.99
2023-02-02T10:11:01.597Z,99.99
2023-02-02T10:12:01.491Z,99.99
2023-02-02T10:13:01.405Z,99.99
2023-02-02T10:14:01.377Z,99.99
2023-02-02T10:15:01.467Z,99.99
2023-02-02T10:16:01.859Z,99.99
2023-02-02T10:17:01.429Z,99.99
2023-02-02T10:18:01.416Z,99.99
2023-02-02T10:19:01.369Z,99.99
2023-02-02T10:20:01.343Z,99.99
2023-02-02T10:21:01.362Z,99.99
2023-02-02T10:22:01.341Z,99.99
2023-02-02T10:23:01.361Z,99.99
2023-02-02T10:24:02.394Z,99.99
2023-02-02T10:25:01.273Z,99.99
2023-02-02T10:26:01.346Z,99.99
2023-02-02T10:27:01.293Z,99.99
2023-02-02T10:28:01.250Z,99.99
2023-02-02T10:29:01.274Z,99.99
2023-02-02T10:30:01.245Z,99.99
2023-02-02T10:31:01.421Z,99.99
2023-02-02T10:32:01.247Z,99.99
2023-02-02T10:33:01.600Z,99.99
2023-02-02T10:34:01.191Z,99.99
2023-02-02T10:35:13.147Z,99.99
2023-02-02T10:36:01.199Z,99.99
2023-02-02T10:37:01.134Z,99.99
2023-02-02T10:38:01.175Z,99.99
2023-02-02T10:39:01.176Z,99.99
2023-02-02T10:40:01.235Z,99.99
2023-02-02T10:41:01.128Z,99.99
2023-02-02T10:42:01.123Z,99.99
2023-02-02T10:43:01.108Z,99.99
2023-02-02T10:44:01.093Z,99.99
2023-02-02T10:45:01.134Z,99.99
2023-02-02T10:46:01.081Z,99.99
2023-02-02T10:47:01.035Z,99.99
2023-02-02T10:48:01.049Z,99.99
2023-02-02T10:49:01.890Z,99.99
2023-02-02T10:50:01.128Z,99.99
2023-02-02T10:51:00.997Z,99.99
2023-02-02T10:52:01.004Z,99.99
2023-02-02T10:53:01.023Z,99.99
2023-02-02T10:54:01.054Z,99.99
2023-02-02T10:55:04.030Z,99.99
2023-02-02T10:56:00.985Z,99.99
2023-02-02T10:57:01.952Z,99.99
2023-02-02T10:58:00.969Z,99.99
2023-02-02T10:59:00.948Z,99.99
2023-02-02T11:00:01.034Z,99.99
2023-02-02T11:01:00.963Z,99.99
2023-02-02T11:02:11.737Z,99.99
2023-02-02T11:03:00.938Z,99.99
2023-02-02T11:04:00.887Z,99.99
2023-02-02T11:05:00.892Z,99.99
2023-02-02T11:06:00.846Z,99.99
2023-02-02T11:07:01.705Z,99.99
2023-02-02T11:08:00.856Z,99.99
2023-02-02T11:09:00.832Z,99.99
2023-02-02T11:10:00.899Z,99.99
2023-02-02T11:11:00.832Z,99.99
2023-02-02T11:12:00.780Z,99.99
2023-02-02T11:13:02.006Z,99.99
2023-02-02T11:14:00.823Z,99.99
2023-02-02T11:15:00.802Z,99.99
2023-02-02T11:16:05.541Z,99.99
2023-02-02T11:17:00.726Z,99.99
2023-02-02T11:18:00.724Z,99.99
2023-02-02T11:19:00.819Z,99.99
2023-02-02T11:20:00.757Z,99.99
2023-02-02T11:21:00.858Z,99.99
2023-02-02T11:22:00.813Z,99.99
2023-02-02T11:23:00.737Z,99.99
2023-02-02T11:24:00.848Z,99.99
2023-02-02T11:25:00.715Z,99.99
2023-02-02T11:26:00.667Z,99.99
2023-02-02T11:27:00.611Z,99.99
2023-02-02T11:28:00.693Z,99.99
2023-02-02T11:29:01.141Z,99.99
2023-02-02T11:30:00.603Z,99.99
2023-02-02T11:31:00.835Z,99.99
2023-02-02T11:32:00.673Z,99.99
2023-02-02T11:33:00.568Z,99.99
2023-02-02T11:34:00.580Z,99.99
2023-02-02T11:35:00.538Z,99.99
2023-02-02T11:36:00.562Z,99.99
2023-02-02T11:37:00.552Z,99.99
2023-02-02T11:38:00.512Z,99.99
2023-02-02T11:39:00.565Z,99.99
2023-02-02T11:40:00.498Z,99.99
2023-02-02T11:41:00.537Z,99.99
2023-02-02T11:42:00.527Z,99.99
2023-02-02T11:43:00.474Z,99.99
2023-02-02T11:44:00.460Z,99.99
2023-02-02T11:45:00.521Z,99.99
2023-02-02T11:46:02.843Z,99.99
2023-02-02T11:47:00.511Z,99.99
2023-02-02T11:48:00.421Z,99.99
2023-02-02T11:49:00.447Z,99.99
2023-02-02T11:50:00.400Z,99.99
2023-02-02T11:51:00.464Z,99.99
2023-02-02T11:52:00.362Z,99.99
2023-02-02T11:53:00.341Z,99.99
2023-02-02T11:54:00.346Z,99.99
2023-02-02T11:55:00.372Z,99.99
2023-02-02T11:56:00.300Z,99.99
2023-02-02T11:57:00.318Z,99.99
2023-02-02T11:58:00.305Z,99.99
2023-02-02T11:59:00.287Z,99.99
2023-02-02T12:00:00.264Z,99.99
2023-02-02T12:01:00.274Z,99.99
2023-02-02T12:02:00.365Z,99.99
2023-02-02T12:03:00.267Z,99.99
2023-02-02T12:04:00.291Z,99.99
2023-02-02T12:05:00.219Z,99.99
2023-02-02T12:06:00.201Z,99.99
2023-02-02T12:07:00.246Z,99.99
2023-02-02T12:08:00.193Z,99.99
2023-02-02T12:09:00.171Z,99.99
2023-02-02T12:10:00.251Z,99.99
2023-02-02T12:11:00.175Z,99.99
2023-02-02T12:12:00.154Z,99.99
2023-02-02T12:13:00.120Z,99.99
2023-02-02T12:14:00.130Z,99.99
2023-02-02T12:15:00.140Z,99.99
2023-02-02T12:16:00.133Z,99.99
2023-02-02T12:17:00.093Z,99.99
2023-02-02T12:18:00.140Z,99.99
2023-02-02T12:19:00.169Z,99.99
2023-02-02T12:20:00.907Z,99.99
2023-02-02T12:21:00.041Z,99.99
2023-02-02T12:22:00.059Z,99.99
2023-02-02T12:23:00.030Z,99.99
2023-02-02T12:24:00.014Z,99.99
2023-02-02T12:25:00.101Z,99.99
2023-02-02T12:26:00.059Z,99.99
2023-02-02T12:27:00.079Z,99.99
2023-02-02T12:28:00.010Z,99.99
2023-02-02T12:29:00.036Z,99.99
2023-02-02T12:29:59.981Z,99.99
2023-02-02T12:31:00.094Z,99.99
2023-02-02T12:32:00.015Z,99.99
2023-02-02T12:32:59.975Z,99.99
2023-02-02T12:33:59.955Z,99.99
2023-02-02T12:34:59.906Z,99.99
2023-02-02T12:35:59.940Z,99.99
2023-02-02T12:36:59.896Z,99.99
2023-02-02T12:37:59.901Z,99.99
2023-02-02T12:38:59.864Z,99.99
2023-02-02T12:39:59.860Z,99.99
2023-02-02T12:41:00.051Z,99.99
2023-02-02T12:41:59.840Z,99.99
2023-02-02T12:42:59.819Z,99.99
2023-02-02T12:43:59.784Z,99.99
2023-02-02T12:44:59.800Z,99.99
2023-02-02T12:45:59.822Z,99.99
2023-02-02T12:46:59.789Z,99.99
2023-02-02T12:47:59.769Z,99.99
2023-02-02T12:48:59.762Z,99.99
2023-02-02T12:49:59.763Z,99.99
2023-02-02T12:50:59.746Z,99.99
2023-02-02T12:51:59.718Z,99.99